Gulf Coral — C6XQ7 — position and weather

sailwx.info

Track history (hours):
 
Tides and Currents Weather Stations Pressure Air Temp Water Temp Dewpoint Dewpoint Depression Visibility Wind Speed Wind Dir Waves Ship Positions

Gulf Coral

Last reported at 2018-May-27 05:13 UTC. Time now 2018-Jun-22 18:49 UTC.
Position N 01°25' E 103°13'.
Warning: this ship's position is 26 days out of date.

Length 228 m; draft 8 m.

Type: Ship. MMSI: 311019400.

Date/timePositionNaut miles runAvg speedWind from/ knotsBaromVisibWave heightAir tempDewpointWater temp
2018-May-27 05:13N 01°25' E 103°13'3 9.7
2018-May-27 04:52N 01°23' E 103°15'4 9.4
2018-May-27 04:27N 01°20' E 103°18'4 9.7
2018-May-27 04:00N 01°17' E 103°21'5 9.8
2018-May-27 03:30N 01°14' E 103°25'5 9.8
2018-May-27 03:00N 01°13' E 103°30'5 9.8
2018-May-27 02:30N 01°12' E 103°35'5 9.3
2018-May-27 02:00N 01°11' E 103°39'5 9.5
2018-May-27 01:30N 01°09' E 103°43'510.1
2018-May-27 01:01N 01°11' E 103°48'611.2
2018-May-27 00:30N 01°13' E 103°53'611.8
2018-May-27 00:00N 01°15' E 103°59'3 5.6
2018-May-26 23:30N 01°17' E 104°01'0 0.3
2018-May-26 22:47N 01°17' E 104°01'0 0.2
2018-May-26 22:23N 01°17' E 104°01'0 0.1
2018-May-26 21:59N 01°17' E 104°01'0 0.1
2018-May-26 21:29N 01°17' E 104°01'0 0.0
2018-May-26 20:56N 01°17' E 104°01'0 0.0
2018-May-26 20:23N 01°17' E 104°01'0 0.0
2018-May-26 19:46N 01°17' E 104°01'0 0.0
2018-May-26 19:23N 01°17' E 104°01'0 0.0
2018-May-26 18:55N 01°17' E 104°01'0 0.0
2018-May-26 18:29N 01°17' E 104°01'0 0.0
2018-May-26 17:59N 01°17' E 104°01'0 0.1
2018-May-26 17:29N 01°17' E 104°01'0 0.0
2018-May-26 16:55N 01°17' E 104°01'0 0.0
2018-May-26 16:29N 01°17' E 104°01'0 0.1
2018-May-26 15:56N 01°17' E 104°01'0 0.2
2018-May-26 15:22N 01°17' E 104°01'0 0.2
2018-May-26 14:59N 01°17' E 104°01'0 0.1
2018-May-26 14:29N 01°17' E 104°00'0 0.0
2018-May-26 13:41N 01°17' E 104°00'0 0.1
2018-May-26 12:50N 01°17' E 104°00'0 0.0
2018-May-26 12:16N 01°17' E 104°00'0 0.1
2018-May-26 11:47N 01°17' E 104°00'0 0.2
2018-May-26 11:28N 01°17' E 104°00'0 0.2
2018-May-26 11:00N 01°17' E 104°00'2 4.3
2018-May-26 10:30N 01°16' E 103°59'1 1.1
2018-May-26 09:59N 01°16' E 103°59'2 4.9
2018-May-26 09:30N 01°16' E 104°01'3 4.9
2018-May-26 09:00N 01°16' E 104°04'3 6.5
2018-May-26 08:29N 01°17' E 104°07'3 6.6
2018-May-26 07:59N 01°17' E 104°11'3 6.4
2018-May-26 07:29N 01°17' E 104°14'3 6.3
2018-May-26 07:00N 01°18' E 104°17'4 8.1
2018-May-26 06:30N 01°19' E 104°20'1110.0
2018-May-26 05:26N 01°27' E 104°28'  
2018-May-19 15:57N 22°19' E 114°07'  
2018-May-17 11:54N 22°38' E 118°46'513.5
2018-May-17 11:30N 22°40' E 118°51'713.5
2018-May-17 10:59N 22°42' E 118°58'613.4
2018-May-17 10:30N 22°44' E 119°05'713.2
2018-May-17 09:59N 22°46' E 119°12'613.5
2018-May-17 09:30N 22°52' E 119°16'814.6
2018-May-17 08:57N 22°58' E 119°21'713.4
2018-May-17 08:27N 23°03' E 119°26'1013.4
2018-May-17 07:41N 23°08' E 119°36'1813.0
2018-May-17 06:18N 23°17' E 119°52'  
Track history (hours):
 
Tides and Currents Weather Stations Pressure Air Temp Water Temp Dewpoint Dewpoint Depression Visibility Wind Speed Wind Dir Waves Ship Positions

Gulf Coral

Last reported at 2018-May-27 05:13 UTC. Time now 2018-Jun-22 18:49 UTC.
Position N 01°25' E 103°13'.
Warning: this ship's position is 26 days out of date.

Length 228 m; draft 8 m.

Type: Ship. MMSI: 311019400.

Date/timePositionNaut miles runAvg speedWind from/ knotsBaromVisibWave heightAir tempDewpointWater temp
2018-May-27 05:13N 01°25' E 103°13'3 9.7
2018-May-27 04:52N 01°23' E 103°15'4 9.4
2018-May-27 04:27N 01°20' E 103°18'4 9.7
2018-May-27 04:00N 01°17' E 103°21'5 9.8
2018-May-27 03:30N 01°14' E 103°25'5 9.8
2018-May-27 03:00N 01°13' E 103°30'5 9.8
2018-May-27 02:30N 01°12' E 103°35'5 9.3
2018-May-27 02:00N 01°11' E 103°39'5 9.5
2018-May-27 01:30N 01°09' E 103°43'510.1
2018-May-27 01:01N 01°11' E 103°48'611.2
2018-May-27 00:30N 01°13' E 103°53'611.8
2018-May-27 00:00N 01°15' E 103°59'3 5.6
2018-May-26 23:30N 01°17' E 104°01'0 0.3
2018-May-26 22:47N 01°17' E 104°01'0 0.2
2018-May-26 22:23N 01°17' E 104°01'0 0.1
2018-May-26 21:59N 01°17' E 104°01'0 0.1
2018-May-26 21:29N 01°17' E 104°01'0 0.0
2018-May-26 20:56N 01°17' E 104°01'0 0.0
2018-May-26 20:23N 01°17' E 104°01'0 0.0
2018-May-26 19:46N 01°17' E 104°01'0 0.0
2018-May-26 19:23N 01°17' E 104°01'0 0.0
2018-May-26 18:55N 01°17' E 104°01'0 0.0
2018-May-26 18:29N 01°17' E 104°01'0 0.0
2018-May-26 17:59N 01°17' E 104°01'0 0.1
2018-May-26 17:29N 01°17' E 104°01'0 0.0
2018-May-26 16:55N 01°17' E 104°01'0 0.0
2018-May-26 16:29N 01°17' E 104°01'0 0.1
2018-May-26 15:56N 01°17' E 104°01'0 0.2
2018-May-26 15:22N 01°17' E 104°01'0 0.2
2018-May-26 14:59N 01°17' E 104°01'0 0.1
2018-May-26 14:29N 01°17' E 104°00'0 0.0
2018-May-26 13:41N 01°17' E 104°00'0 0.1
2018-May-26 12:50N 01°17' E 104°00'0 0.0
2018-May-26 12:16N 01°17' E 104°00'0 0.1
2018-May-26 11:47N 01°17' E 104°00'0 0.2
2018-May-26 11:28N 01°17' E 104°00'0 0.2
2018-May-26 11:00N 01°17' E 104°00'2 4.3
2018-May-26 10:30N 01°16' E 103°59'1 1.1
2018-May-26 09:59N 01°16' E 103°59'2 4.9
2018-May-26 09:30N 01°16' E 104°01'3 4.9
2018-May-26 09:00N 01°16' E 104°04'3 6.5
2018-May-26 08:29N 01°17' E 104°07'3 6.6
2018-May-26 07:59N 01°17' E 104°11'3 6.4
2018-May-26 07:29N 01°17' E 104°14'3 6.3
2018-May-26 07:00N 01°18' E 104°17'4 8.1
2018-May-26 06:30N 01°19' E 104°20'1110.0
2018-May-26 05:26N 01°27' E 104°28'  
2018-May-19 15:57N 22°19' E 114°07'  
2018-May-17 11:54N 22°38' E 118°46'513.5
2018-May-17 11:30N 22°40' E 118°51'713.5
2018-May-17 10:59N 22°42' E 118°58'613.4
2018-May-17 10:30N 22°44' E 119°05'713.2
2018-May-17 09:59N 22°46' E 119°12'613.5
2018-May-17 09:30N 22°52' E 119°16'814.6
2018-May-17 08:57N 22°58' E 119°21'713.4
2018-May-17 08:27N 23°03' E 119°26'1013.4
2018-May-17 07:41N 23°08' E 119°36'1813.0
2018-May-17 06:18N 23°17' E 119°52'  

Dump ship's entire track history